Time;durP1;ratioP1;P1;durP2;ratioP2;P2;SDS_P1;SDS_P2;PMS_P1;PMS_P2;Temp;Humidity;BMP_temperature;BMP_pressure;BME280_temperature;BME280_humidity;BME280_pressure;Samples;Min_cycle;Max_cycle;Signal;HPM_P1;HPM_P2
2022/01/07 00:02:22;;;;;;;;;;;21.30;40.40;;;;;;6316065;28;20042;-41
2022/01/07 00:05:24;;;;;;;;;;;21.80;40.60;;;;;;6318188;28;19924;-42
2022/01/07 00:08:26;;;;;;;;;;;21.30;40.20;;;;;;6318943;28;20728;-43
2022/01/07 00:11:27;;;;;;;;;;;20.80;40.10;;;;;;6315024;28;20051;-44
2022/01/07 00:14:29;;;;;;;;;;;21.20;40.30;;;;;;6321768;28;19928;-43
2022/01/07 00:17:30;;;;;;;;;;;20.90;40.20;;;;;;6316638;28;20050;-45
2022/01/07 00:20:32;;;;;;;;;;;21.30;40.30;;;;;;6308341;28;20476;-41
2022/01/07 00:23:34;;;;;;;;;;;20.80;40.00;;;;;;6292981;28;20102;-44
2022/01/07 00:26:35;;;;;;;;;;;20.90;40.10;;;;;;6311989;28;20761;-45
2022/01/07 00:29:36;;;;;;;;;;;21.00;40.30;;;;;;6316803;28;19971;-46
2022/01/07 00:32:39;;;;;;;;;;;20.70;40.10;;;;;;6318007;28;19934;-42
2022/01/07 00:35:40;;;;;;;;;;;21.40;40.40;;;;;;6316061;28;19924;-43
2022/01/07 00:38:42;;;;;;;;;;;21.00;40.40;;;;;;6316708;28;20506;-43
2022/01/07 00:41:44;;;;;;;;;;;20.90;40.20;;;;;;6316835;28;19932;-41
2022/01/07 00:44:46;;;;;;;;;;;21.30;40.40;;;;;;6305398;28;19928;-42
2022/01/07 00:47:48;;;;;;;;;;;20.90;40.30;;;;;;6295783;28;19965;-43
2022/01/07 00:50:49;;;;;;;;;;;21.00;40.30;;;;;;6292233;28;20412;-42
2022/01/07 00:53:52;;;;;;;;;;;21.60;40.70;;;;;;6315274;27;19923;-42
2022/01/07 00:56:54;;;;;;;;;;;20.90;40.40;;;;;;6310219;28;19923;-43
2022/01/07 00:59:55;;;;;;;;;;;21.00;40.40;;;;;;6299770;28;19931;-43
2022/01/07 01:02:57;;;;;;;;;;;20.90;40.40;;;;;;6297336;28;19931;-44
2022/01/07 01:05:59;;;;;;;;;;;21.30;40.60;;;;;;6299744;28;19935;-43
2022/01/07 01:09:01;;;;;;;;;;;21.30;40.60;;;;;;6314360;28;19930;-42
2022/01/07 01:12:03;;;;;;;;;;;20.80;40.40;;;;;;6307728;28;19935;-42
2022/01/07 01:15:06;;;;;;;;;;;21.00;40.50;;;;;;6315170;28;19993;-43
2022/01/07 01:18:08;;;;;;;;;;;21.00;40.50;;;;;;6319579;28;19983;-41
2022/01/07 01:21:09;;;;;;;;;;;21.30;40.70;;;;;;6300070;28;19959;-43
2022/01/07 01:24:11;;;;;;;;;;;21.00;40.60;;;;;;6324447;28;19927;-45
2022/01/07 01:27:12;;;;;;;;;;;20.90;40.40;;;;;;6319026;28;19931;-39
2022/01/07 01:30:17;;;;;;;;;;;21.40;40.40;;;;;;6298605;28;19980;-46
2022/01/07 01:33:18;;;;;;;;;;;21.20;40.70;;;;;;6316763;28;20009;-41
2022/01/07 01:36:24;;;;;;;;;;;21.50;40.80;;;;;;6315721;28;20728;-42
2022/01/07 01:39:27;;;;;;;;;;;21.30;40.50;;;;;;6325897;28;20701;-42
2022/01/07 01:42:29;;;;;;;;;;;21.30;40.60;;;;;;6322197;28;19923;-41
2022/01/07 01:45:30;;;;;;;;;;;20.90;40.60;;;;;;6310627;28;20017;-42
2022/01/07 01:48:32;;;;;;;;;;;20.70;40.60;;;;;;6318833;28;19927;-42
2022/01/07 01:51:34;;;;;;;;;;;20.90;40.50;;;;;;6296876;28;20901;-45
2022/01/07 01:54:37;;;;;;;;;;;20.90;40.60;;;;;;6296727;28;20436;-44
2022/01/07 01:57:38;;;;;;;;;;;21.00;40.70;;;;;;6315634;28;20705;-43
2022/01/07 02:00:40;;;;;;;;;;;20.80;40.60;;;;;;6313183;28;19969;-45
2022/01/07 02:03:42;;;;;;;;;;;21.00;40.60;;;;;;6291798;28;19924;-42
2022/01/07 02:06:43;;;;;;;;;;;21.30;40.80;;;;;;6298074;28;19928;-42
2022/01/07 02:09:45;;;;;;;;;;;20.90;40.70;;;;;;6315644;28;19928;-43
2022/01/07 02:12:47;;;;;;;;;;;20.80;40.70;;;;;;6316975;28;20046;-46
2022/01/07 02:15:48;;;;;;;;;;;20.70;40.60;;;;;;6307147;28;19924;-41
2022/01/07 02:18:50;;;;;;;;;;;21.00;40.80;;;;;;6312850;28;19927;-44
2022/01/07 02:21:52;;;;;;;;;;;20.80;40.50;;;;;;6318132;28;19930;-43
2022/01/07 02:24:53;;;;;;;;;;;20.90;40.70;;;;;;6317847;28;19981;-44
2022/01/07 02:27:55;;;;;;;;;;;21.20;41.00;;;;;;6318100;28;20669;-42
2022/01/07 02:30:56;;;;;;;;;;;20.80;40.60;;;;;;6314382;28;20577;-43
2022/01/07 02:33:58;;;;;;;;;;;20.80;40.80;;;;;;6318065;28;19927;-47
2022/01/07 02:37:00;;;;;;;;;;;21.20;41.00;;;;;;6315582;28;19991;-44
2022/01/07 02:40:03;;;;;;;;;;;21.00;40.70;;;;;;6319108;28;20049;-44
2022/01/07 02:43:04;;;;;;;;;;;20.80;40.70;;;;;;6301134;28;19923;-44
2022/01/07 02:46:05;;;;;;;;;;;20.80;40.80;;;;;;6311282;28;20037;-46
2022/01/07 02:49:08;;;;;;;;;;;20.80;40.90;;;;;;6317976;28;19969;-43
2022/01/07 02:52:10;;;;;;;;;;;20.70;40.60;;;;;;6317263;28;20504;-43
2022/01/07 02:55:11;;;;;;;;;;;20.60;40.70;;;;;;6318273;28;19924;-48
2022/01/07 02:58:13;;;;;;;;;;;21.40;41.20;;;;;;6316474;28;19939;-48
2022/01/07 03:01:14;;;;;;;;;;;20.80;40.90;;;;;;6321275;28;20814;-45
2022/01/07 03:04:19;;;;;;;;;;;21.00;41.00;;;;;;6316853;28;20441;-42
2022/01/07 03:07:22;;;;;;;;;;;21.10;40.90;;;;;;6318581;28;20457;-45
2022/01/07 03:10:26;;;;;;;;;;;20.80;41.00;;;;;;6315290;28;20050;-45
2022/01/07 03:13:27;;;;;;;;;;;21.20;40.80;;;;;;6320033;28;20010;-42
2022/01/07 03:16:28;;;;;;;;;;;21.10;41.10;;;;;;6317744;28;19923;-44
2022/01/07 03:19:30;;;;;;;;;;;20.70;41.00;;;;;;6317971;28;19938;-43
2022/01/07 03:22:32;;;;;;;;;;;20.80;41.10;;;;;;6318809;28;19924;-47
2022/01/07 03:25:33;;;;;;;;;;;20.60;40.80;;;;;;6310425;28;20018;-43
2022/01/07 03:28:35;;;;;;;;;;;20.90;41.00;;;;;;6294073;28;19927;-45
2022/01/07 03:31:36;;;;;;;;;;;20.70;41.00;;;;;;6324950;28;19977;-45
2022/01/07 03:34:40;;;;;;;;;;;21.10;41.30;;;;;;6329077;28;20010;-44
2022/01/07 03:37:42;;;;;;;;;;;21.30;41.10;;;;;;6321317;28;20900;-44
2022/01/07 03:40:44;;;;;;;;;;;21.00;41.10;;;;;;6323073;28;20042;-42
2022/01/07 03:43:45;;;;;;;;;;;20.70;41.00;;;;;;6324683;28;19927;-48
2022/01/07 03:46:46;;;;;;;;;;;21.10;41.30;;;;;;6325563;28;19923;-41
2022/01/07 03:49:48;;;;;;;;;;;20.80;41.10;;;;;;6323227;28;20854;-44
2022/01/07 03:52:50;;;;;;;;;;;21.00;41.10;;;;;;6316508;28;20019;-44
2022/01/07 03:55:51;;;;;;;;;;;20.60;41.00;;;;;;6316862;28;20010;-44
2022/01/07 03:58:53;;;;;;;;;;;20.80;41.10;;;;;;6296333;28;20043;-41
2022/01/07 04:01:54;;;;;;;;;;;20.70;41.10;;;;;;6298093;28;19924;-43
2022/01/07 04:04:57;;;;;;;;;;;21.00;41.30;;;;;;6305386;28;20496;-42
2022/01/07 04:07:59;;;;;;;;;;;21.20;41.30;;;;;;6310647;28;19993;-43
2022/01/07 04:11:00;;;;;;;;;;;21.00;41.30;;;;;;6310719;28;19923;-41
2022/01/07 04:14:01;;;;;;;;;;;20.70;41.10;;;;;;6307355;28;19924;-41
2022/01/07 04:17:03;;;;;;;;;;;20.70;41.20;;;;;;6327251;28;19928;-45
2022/01/07 04:20:06;;;;;;;;;;;20.80;41.20;;;;;;6325176;28;19923;-42
2022/01/07 04:23:08;;;;;;;;;;;20.90;41.30;;;;;;6313060;28;20061;-42
2022/01/07 04:26:09;;;;;;;;;;;21.00;41.40;;;;;;6301840;28;20407;-40
2022/01/07 04:29:11;;;;;;;;;;;21.00;41.50;;;;;;6316834;28;19923;-42
2022/01/07 04:32:12;;;;;;;;;;;20.60;41.20;;;;;;6321519;28;19928;-41
2022/01/07 04:35:14;;;;;;;;;;;20.70;42.10;;;;;;6330688;28;20014;-41
2022/01/07 04:38:16;;;;;;;;;;;21.10;41.30;;;;;;6311077;28;20808;-44
2022/01/07 04:41:18;;;;;;;;;;;20.70;41.30;;;;;;6328870;28;19930;-41
2022/01/07 04:44:20;;;;;;;;;;;21.20;41.50;;;;;;6322110;28;20484;-40
2022/01/07 04:47:22;;;;;;;;;;;20.80;41.30;;;;;;6311862;28;20450;-43
2022/01/07 04:50:24;;;;;;;;;;;20.60;41.30;;;;;;6304876;28;19924;-40
2022/01/07 04:53:26;;;;;;;;;;;21.10;41.60;;;;;;6298497;28;20445;-40
2022/01/07 04:56:27;;;;;;;;;;;20.70;41.50;;;;;;6322574;28;20356;-40
2022/01/07 04:59:29;;;;;;;;;;;21.00;41.60;;;;;;6318635;28;20030;-45
2022/01/07 05:02:30;;;;;;;;;;;20.70;41.40;;;;;;6317869;28;19923;-42
2022/01/07 05:05:32;;;;;;;;;;;20.70;41.50;;;;;;6324468;28;19923;-43
2022/01/07 05:08:34;;;;;;;;;;;20.80;41.50;;;;;;6321487;28;20047;-41
2022/01/07 05:11:35;;;;;;;;;;;20.90;41.60;;;;;;6327213;28;20024;-43
2022/01/07 05:14:36;;;;;;;;;;;20.70;41.50;;;;;;6326088;28;19923;-43
2022/01/07 05:17:38;;;;;;;;;;;20.50;41.40;;;;;;6317265;28;19994;-44
2022/01/07 05:20:39;;;;;;;;;;;20.50;41.50;;;;;;6320821;28;20654;-40
2022/01/07 05:23:41;;;;;;;;;;;20.70;41.30;;;;;;6318548;28;19924;-45
2022/01/07 05:26:43;;;;;;;;;;;20.70;41.60;;;;;;6303511;28;19928;-41
2022/01/07 05:29:44;;;;;;;;;;;20.50;41.50;;;;;;6310538;28;20789;-43
2022/01/07 05:32:45;;;;;;;;;;;20.50;41.50;;;;;;6317553;28;20582;-41
2022/01/07 05:35:47;;;;;;;;;;;20.90;41.80;;;;;;6310984;28;19998;-42
2022/01/07 05:38:49;;;;;;;;;;;21.10;41.90;;;;;;6304966;28;19924;-43
2022/01/07 05:41:51;;;;;;;;;;;20.90;41.80;;;;;;6313168;28;20070;-44
2022/01/07 05:44:52;;;;;;;;;;;20.60;41.50;;;;;;6309325;28;19997;-42
2022/01/07 05:47:54;;;;;;;;;;;20.90;41.70;;;;;;6290645;28;20484;-41
2022/01/07 05:50:55;;;;;;;;;;;20.60;41.70;;;;;;6310408;28;20676;-42
2022/01/07 05:53:57;;;;;;;;;;;20.50;41.70;;;;;;6308971;28;20042;-40
2022/01/07 05:56:59;;;;;;;;;;;20.50;41.60;;;;;;6311564;28;20682;-43
2022/01/07 06:00:00;;;;;;;;;;;20.50;41.70;;;;;;6312592;28;19966;-41
2022/01/07 06:03:01;;;;;;;;;;;20.60;41.70;;;;;;6311516;28;20006;-45
2022/01/07 06:06:03;;;;;;;;;;;21.00;41.90;;;;;;6294362;28;19928;-47
2022/01/07 06:09:05;;;;;;;;;;;21.00;41.70;;;;;;6319368;28;19930;-42
2022/01/07 06:12:07;;;;;;;;;;;21.00;42.10;;;;;;6316538;28;19931;-43
2022/01/07 06:15:09;;;;;;;;;;;20.60;41.60;;;;;;6318879;28;19970;-43
2022/01/07 06:18:10;;;;;;;;;;;20.90;41.80;;;;;;6313710;28;20433;-43
2022/01/07 06:21:13;;;;;;;;;;;20.60;41.70;;;;;;6308952;28;20030;-46
2022/01/07 06:24:15;;;;;;;;;;;20.80;41.90;;;;;;6306142;28;20071;-45
2022/01/07 06:27:16;;;;;;;;;;;20.70;41.80;;;;;;6296161;28;19927;-42
2022/01/07 06:30:19;;;;;;;;;;;20.70;41.80;;;;;;6305169;28;19927;-44
2022/01/07 06:33:20;;;;;;;;;;;20.50;41.80;;;;;;6313742;28;20001;-40
2022/01/07 06:36:22;;;;;;;;;;;20.60;41.80;;;;;;6302831;28;20135;-41
2022/01/07 06:39:24;;;;;;;;;;;21.10;42.20;;;;;;6297392;28;20650;-43
2022/01/07 06:42:25;;;;;;;;;;;20.90;41.90;;;;;;6301196;28;20038;-44
2022/01/07 06:45:27;;;;;;;;;;;20.60;41.80;;;;;;6303717;28;19935;-44
2022/01/07 06:48:28;;;;;;;;;;;20.50;41.70;;;;;;6287955;28;19927;-45
2022/01/07 06:51:31;;;;;;;;;;;20.60;41.60;;;;;;6287009;28;20071;-42
2022/01/07 06:54:33;;;;;;;;;;;20.80;41.70;;;;;;6308688;28;20807;-44
2022/01/07 06:57:34;;;;;;;;;;;20.90;41.70;;;;;;6302543;28;20098;-41
2022/01/07 07:00:36;;;;;;;;;;;20.60;41.50;;;;;;6294587;28;19930;-42
2022/01/07 07:03:40;;;;;;;;;;;20.80;41.50;;;;;;6282778;28;20046;-41
2022/01/07 07:06:41;;;;;;;;;;;21.10;41.60;;;;;;6285941;28;19928;-40
2022/01/07 07:09:43;;;;;;;;;;;21.20;41.70;;;;;;6285052;28;19952;-43
2022/01/07 07:12:44;;;;;;;;;;;20.90;41.30;;;;;;6270787;28;19983;-42
2022/01/07 07:15:46;;;;;;;;;;;20.70;41.30;;;;;;6259639;28;20910;-45
2022/01/07 07:18:47;;;;;;;;;;;20.80;41.20;;;;;;6277870;28;20849;-43
2022/01/07 07:21:49;;;;;;;;;;;21.30;41.40;;;;;;6261320;28;19940;-43
2022/01/07 07:24:52;;;;;;;;;;;21.50;41.50;;;;;;6249653;28;19928;-43
2022/01/07 07:27:53;;;;;;;;;;;21.00;41.20;;;;;;6271683;28;20051;-41
2022/01/07 07:30:58;;;;;;;;;;;21.00;41.10;;;;;;6267188;28;19935;-44
2022/01/07 07:34:20;;;;;;;;;;;21.00;41.10;;;;;;6275357;28;19959;-44
2022/01/07 07:37:21;;;;;;;;;;;21.00;41.00;;;;;;6268804;28;20292;-42
2022/01/07 07:40:23;;;;;;;;;;;21.40;41.20;;;;;;6268707;28;19928;-44
2022/01/07 07:43:25;;;;;;;;;;;21.10;41.10;;;;;;6230155;28;20074;-45
2022/01/07 07:46:28;;;;;;;;;;;21.40;41.10;;;;;;6258252;28;20052;-42
2022/01/07 07:49:29;;;;;;;;;;;20.90;40.70;;;;;;6207128;28;20043;-42
2022/01/07 07:52:31;;;;;;;;;;;21.00;41.00;;;;;;6250035;28;19968;-43
2022/01/07 07:55:33;;;;;;;;;;;21.30;41.00;;;;;;6246440;28;20059;-44
2022/01/07 07:58:34;;;;;;;;;;;21.20;40.90;;;;;;6239639;28;19967;-47
2022/01/07 08:01:36;;;;;;;;;;;21.20;40.80;;;;;;6224585;28;19965;-43
2022/01/07 08:04:38;;;;;;;;;;;21.10;40.70;;;;;;6225589;28;20042;-42
2022/01/07 08:07:39;;;;;;;;;;;21.20;40.90;;;;;;6219428;28;19969;-42
2022/01/07 08:10:47;;;;;;;;;;;21.60;40.90;;;;;;6238378;28;19966;-43
2022/01/07 08:17:02;;;;;;;;;;;21.40;40.60;;;;;;6227887;28;19934;-44
2022/01/07 08:20:05;;;;;;;;;;;21.50;40.70;;;;;;6207075;28;19934;-44
2022/01/07 08:23:07;;;;;;;;;;;21.70;40.80;;;;;;6206623;28;19927;-43
2022/01/07 08:26:10;;;;;;;;;;;21.80;40.90;;;;;;6225682;28;19928;-43
2022/01/07 08:29:12;;;;;;;;;;;21.30;40.50;;;;;;6226348;28;21875;-41
2022/01/07 08:35:30;;;;;;;;;;;21.80;40.70;;;;;;6235356;28;20005;-44
2022/01/07 08:38:31;;;;;;;;;;;21.40;40.40;;;;;;6237960;28;19934;-42
2022/01/07 08:41:34;;;;;;;;;;;21.60;40.60;;;;;;6235623;28;20083;-47
2022/01/07 08:44:35;;;;;;;;;;;21.80;40.60;;;;;;6212642;28;20044;-43
2022/01/07 08:47:36;;;;;;;;;;;21.90;40.70;;;;;;6217558;28;19928;-41
2022/01/07 08:50:38;;;;;;;;;;;21.80;40.50;;;;;;6226549;28;19934;-42
2022/01/07 08:53:40;;;;;;;;;;;21.50;40.30;;;;;;6222456;28;20809;-43
2022/01/07 08:56:42;;;;;;;;;;;21.70;40.30;;;;;;6194388;28;21629;-41
2022/01/07 08:59:43;;;;;;;;;;;21.90;40.50;;;;;;6214747;28;20055;-43
2022/01/07 09:02:44;;;;;;;;;;;21.70;40.40;;;;;;6225608;28;19934;-43
2022/01/07 09:05:46;;;;;;;;;;;21.70;40.30;;;;;;6230353;28;20037;-47
2022/01/07 09:08:47;;;;;;;;;;;21.60;40.20;;;;;;6211367;28;21831;-44
2022/01/07 09:11:49;;;;;;;;;;;21.70;40.30;;;;;;6219998;28;20084;-43
2022/01/07 09:14:51;;;;;;;;;;;22.10;40.40;;;;;;6211895;28;19928;-42
2022/01/07 09:17:52;;;;;;;;;;;21.70;40.20;;;;;;6223291;28;21155;-44
2022/01/07 09:20:54;;;;;;;;;;;21.70;40.10;;;;;;6218046;28;19928;-42
2022/01/07 09:23:56;;;;;;;;;;;22.10;40.30;;;;;;6223571;28;19934;-44
2022/01/07 09:26:59;;;;;;;;;;;22.00;40.30;;;;;;6214524;28;20119;-44
2022/01/07 09:30:00;;;;;;;;;;;21.70;40.10;;;;;;6231410;28;20054;-44
2022/01/07 09:33:02;;;;;;;;;;;21.50;40.00;;;;;;6225400;28;19927;-45
2022/01/07 09:36:03;;;;;;;;;;;22.10;40.30;;;;;;6223639;28;20038;-43
2022/01/07 09:39:04;;;;;;;;;;;21.90;40.10;;;;;;6220812;28;19931;-43
2022/01/07 09:42:07;;;;;;;;;;;22.30;40.40;;;;;;6213125;28;19927;-41
2022/01/07 09:45:09;;;;;;;;;;;22.20;40.90;;;;;;6223217;28;19928;-44
2022/01/07 09:48:10;;;;;;;;;;;22.00;40.80;;;;;;6236773;28;19927;-45
2022/01/07 09:51:13;;;;;;;;;;;22.00;40.20;;;;;;6204405;28;21699;-44
2022/01/07 09:54:14;;;;;;;;;;;21.90;40.00;;;;;;6231454;28;19927;-45
2022/01/07 09:57:16;;;;;;;;;;;22.20;40.30;;;;;;6224870;28;20008;-43
2022/01/07 10:00:17;;;;;;;;;;;22.10;40.10;;;;;;6209247;28;22509;-44
2022/01/07 10:03:19;;;;;;;;;;;22.00;40.00;;;;;;6211725;28;19927;-45
2022/01/07 10:06:22;;;;;;;;;;;21.90;40.00;;;;;;6226945;28;20008;-43
2022/01/07 10:09:23;;;;;;;;;;;22.30;40.30;;;;;;6225709;28;20043;-43
2022/01/07 10:12:25;;;;;;;;;;;22.00;40.00;;;;;;6229216;28;20723;-43
2022/01/07 10:15:28;;;;;;;;;;;22.20;40.00;;;;;;6198801;28;19932;-42
2022/01/07 10:18:35;;;;;;;;;;;21.90;40.00;;;;;;6220696;28;20039;-41
2022/01/07 10:21:37;;;;;;;;;;;22.00;39.80;;;;;;6221911;28;20035;-45
2022/01/07 10:24:51;;;;;;;;;;;22.10;40.00;;;;;;6214344;28;19927;-46
2022/01/07 10:27:58;;;;;;;;;;;21.90;39.80;;;;;;6221244;28;19998;-43
2022/01/07 10:31:00;;;;;;;;;;;22.40;40.10;;;;;;6196009;28;20102;-43
2022/01/07 10:34:03;;;;;;;;;;;22.20;39.90;;;;;;6215908;28;20885;-42
2022/01/07 10:37:11;;;;;;;;;;;22.10;39.80;;;;;;6240508;28;20890;-41
2022/01/07 10:40:20;;;;;;;;;;;22.40;40.00;;;;;;6234843;28;20797;-43
2022/01/07 10:43:24;;;;;;;;;;;21.90;39.50;;;;;;6220092;28;20903;-43
2022/01/07 10:46:27;;;;;;;;;;;22.40;40.00;;;;;;6228128;28;19927;-44
2022/01/07 10:49:30;;;;;;;;;;;22.20;39.80;;;;;;6225685;28;19935;-43
2022/01/07 10:52:32;;;;;;;;;;;22.40;39.90;;;;;;6208513;28;21734;-43
2022/01/07 10:55:33;;;;;;;;;;;22.00;39.70;;;;;;6203401;28;19927;-44
2022/01/07 10:58:50;;;;;;;;;;;22.50;40.00;;;;;;6194067;28;20059;-41
2022/01/07 11:01:55;;;;;;;;;;;22.40;40.00;;;;;;6218792;28;19931;-43
2022/01/07 11:04:57;;;;;;;;;;;22.40;39.90;;;;;;6225935;28;20058;-44
2022/01/07 11:07:59;;;;;;;;;;;22.30;40.00;;;;;;6240707;28;20711;-43
2022/01/07 11:11:00;;;;;;;;;;;22.40;39.90;;;;;;6207482;28;20042;-42
2022/01/07 11:14:06;;;;;;;;;;;22.20;40.00;;;;;;6228785;28;19920;-43
2022/01/07 11:17:11;;;;;;;;;;;22.50;39.90;;;;;;6244362;28;19928;-43
2022/01/07 11:20:14;;;;;;;;;;;22.50;39.80;;;;;;6248935;28;20012;-42
2022/01/07 11:23:15;;;;;;;;;;;22.40;39.80;;;;;;6241969;28;19928;-42
2022/01/07 11:26:23;;;;;;;;;;;22.30;39.80;;;;;;6200620;28;21058;-42
2022/01/07 11:29:24;;;;;;;;;;;22.50;39.80;;;;;;6249439;28;19931;-46
2022/01/07 11:32:29;;;;;;;;;;;22.20;39.70;;;;;;6248480;28;19934;-43
2022/01/07 11:35:41;;;;;;;;;;;22.60;39.90;;;;;;6225273;28;19927;-45
2022/01/07 11:38:44;;;;;;;;;;;22.20;39.60;;;;;;6235103;28;19931;-43
2022/01/07 11:41:47;;;;;;;;;;;22.40;39.70;;;;;;6247953;28;20873;-41
2022/01/07 11:44:48;;;;;;;;;;;22.50;39.70;;;;;;6257920;28;19928;-43
2022/01/07 11:47:50;;;;;;;;;;;22.50;39.80;;;;;;6257422;28;19963;-44
2022/01/07 11:51:06;;;;;;;;;;;22.30;39.60;;;;;;6259917;28;20083;-46
2022/01/07 11:54:09;;;;;;;;;;;22.50;39.70;;;;;;6245541;28;19982;-43
2022/01/07 11:57:13;;;;;;;;;;;22.30;39.50;;;;;;6247941;28;21696;-45
2022/01/07 12:00:15;;;;;;;;;;;22.40;39.60;;;;;;6266481;28;20979;-44
2022/01/07 12:03:31;;;;;;;;;;;22.30;39.60;;;;;;6227117;28;20109;-43
2022/01/07 12:06:47;;;;;;;;;;;22.70;39.80;;;;;;6268571;28;20801;-43
2022/01/07 12:09:49;;;;;;;;;;;22.50;39.60;;;;;;6246467;28;19970;-43
2022/01/07 12:12:58;;;;;;;;;;;22.40;39.60;;;;;;6240723;28;19928;-45
2022/01/07 12:15:59;;;;;;;;;;;22.60;39.60;;;;;;6252559;28;19927;-41
2022/01/07 12:19:11;;;;;;;;;;;22.50;40.20;;;;;;6262109;28;19928;-45
2022/01/07 12:22:16;;;;;;;;;;;22.40;40.00;;;;;;6262584;28;20815;-42
2022/01/07 12:25:24;;;;;;;;;;;22.40;39.50;;;;;;6247896;28;20024;-42
2022/01/07 12:28:25;;;;;;;;;;;22.50;39.60;;;;;;6264619;28;20853;-44
2022/01/07 12:31:26;;;;;;;;;;;22.80;39.70;;;;;;6258203;28;20017;-41
2022/01/07 12:34:29;;;;;;;;;;;22.40;39.50;;;;;;6253937;28;19944;-43
2022/01/07 12:37:30;;;;;;;;;;;22.50;39.50;;;;;;6256777;28;20061;-45
2022/01/07 12:40:32;;;;;;;;;;;22.40;39.40;;;;;;6250676;28;20057;-42
2022/01/07 12:43:35;;;;;;;;;;;22.80;39.70;;;;;;6244038;28;19927;-43
2022/01/07 12:46:37;;;;;;;;;;;23.00;39.70;;;;;;6259083;28;19928;-43
2022/01/07 12:49:40;;;;;;;;;;;22.80;39.90;;;;;;6214393;28;19941;-42
2022/01/07 12:52:42;;;;;;;;;;;22.40;39.40;;;;;;6234397;28;19920;-43
2022/01/07 12:55:44;;;;;;;;;;;22.80;39.60;;;;;;6220335;28;19927;-44
2022/01/07 12:58:46;;;;;;;;;;;22.80;39.50;;;;;;6233462;28;19935;-45
2022/01/07 13:01:48;;;;;;;;;;;22.90;39.70;;;;;;6210183;28;20034;-44
2022/01/07 13:04:50;;;;;;;;;;;22.90;39.60;;;;;;6194734;28;19928;-43
2022/01/07 13:07:53;;;;;;;;;;;22.50;39.30;;;;;;6240345;28;19927;-43
2022/01/07 13:10:58;;;;;;;;;;;22.50;39.30;;;;;;6217916;28;21091;-44
2022/01/07 13:14:02;;;;;;;;;;;22.90;39.50;;;;;;6199105;28;20042;-43
2022/01/07 13:17:08;;;;;;;;;;;22.90;39.50;;;;;;6213000;28;19920;-44
2022/01/07 13:20:10;;;;;;;;;;;22.80;39.50;;;;;;6225478;28;19934;-41
2022/01/07 13:23:11;;;;;;;;;;;22.60;39.40;;;;;;6235758;28;20035;-42
2022/01/07 13:26:14;;;;;;;;;;;22.60;39.30;;;;;;6205313;28;19932;-41
2022/01/07 13:29:17;;;;;;;;;;;22.90;39.50;;;;;;6214944;28;19928;-41
2022/01/07 13:32:20;;;;;;;;;;;22.80;39.40;;;;;;6215480;28;21305;-44
2022/01/07 13:35:21;;;;;;;;;;;22.60;39.20;;;;;;6210257;28;19927;-41
2022/01/07 13:38:22;;;;;;;;;;;22.90;39.50;;;;;;6231557;28;19935;-41
2022/01/07 13:41:24;;;;;;;;;;;22.60;39.30;;;;;;6228840;28;20062;-43
2022/01/07 13:44:27;;;;;;;;;;;22.50;39.20;;;;;;6220368;28;19935;-41
2022/01/07 13:47:29;;;;;;;;;;;22.80;39.30;;;;;;6217903;28;20036;-41
2022/01/07 13:50:31;;;;;;;;;;;23.10;39.50;;;;;;6221080;28;19928;-43
2022/01/07 13:53:33;;;;;;;;;;;22.80;39.30;;;;;;6209341;28;21541;-42
2022/01/07 13:56:35;;;;;;;;;;;23.00;39.40;;;;;;6215065;28;20002;-42
2022/01/07 13:59:41;;;;;;;;;;;22.70;39.20;;;;;;6221146;28;20041;-42
2022/01/07 14:02:46;;;;;;;;;;;22.80;39.20;;;;;;6222049;28;20069;-42
2022/01/07 14:06:01;;;;;;;;;;;22.70;39.20;;;;;;6234267;28;19935;-42
2022/01/07 14:09:12;;;;;;;;;;;23.00;39.40;;;;;;6230893;28;19975;-41
2022/01/07 14:12:23;;;;;;;;;;;23.00;39.30;;;;;;6224048;28;20069;-45
2022/01/07 14:15:25;;;;;;;;;;;23.00;39.40;;;;;;6227808;28;19928;-42
2022/01/07 14:18:28;;;;;;;;;;;22.70;39.20;;;;;;6207905;28;19970;-42
2022/01/07 14:21:29;;;;;;;;;;;22.70;39.20;;;;;;6234269;28;19925;-44
2022/01/07 14:24:31;;;;;;;;;;;22.90;39.30;;;;;;6203492;28;19934;-42
2022/01/07 14:27:34;;;;;;;;;;;22.50;39.10;;;;;;6215040;28;19928;-41
2022/01/07 14:30:35;;;;;;;;;;;23.00;39.30;;;;;;6214489;28;20652;-43
2022/01/07 14:33:38;;;;;;;;;;;23.10;39.40;;;;;;6210603;28;19928;-42
2022/01/07 14:36:39;;;;;;;;;;;22.60;39.10;;;;;;6224246;28;19928;-44
2022/01/07 14:39:41;;;;;;;;;;;22.80;39.30;;;;;;6220000;28;20100;-42
2022/01/07 14:42:43;;;;;;;;;;;23.00;39.40;;;;;;6224317;28;19928;-42
2022/01/07 14:45:44;;;;;;;;;;;22.80;39.20;;;;;;6228754;28;19927;-42
2022/01/07 14:48:46;;;;;;;;;;;22.70;39.20;;;;;;6214879;28;19927;-46
2022/01/07 14:51:48;;;;;;;;;;;22.70;39.30;;;;;;6227221;28;19983;-42
2022/01/07 14:54:49;;;;;;;;;;;22.70;39.30;;;;;;6231693;28;21814;-43
2022/01/07 14:57:52;;;;;;;;;;;22.80;39.90;;;;;;6222549;28;19932;-44
2022/01/07 15:00:58;;;;;;;;;;;23.00;39.40;;;;;;6190081;28;19997;-43
2022/01/07 15:03:59;;;;;;;;;;;22.70;39.20;;;;;;6199103;28;19953;-42
2022/01/07 15:07:01;;;;;;;;;;;22.70;39.20;;;;;;6205857;28;19927;-43
2022/01/07 15:10:02;;;;;;;;;;;23.10;39.40;;;;;;6230668;28;19928;-43
2022/01/07 15:13:04;;;;;;;;;;;23.00;39.40;;;;;;6218687;28;19931;-44
2022/01/07 15:19:23;;;;;;;;;;;22.80;39.30;;;;;;6227087;28;19987;-46
2022/01/07 15:22:25;;;;;;;;;;;22.80;39.30;;;;;;6230668;28;19934;-42
2022/01/07 15:25:26;;;;;;;;;;;22.70;39.30;;;;;;6224542;28;19928;-42
2022/01/07 15:28:28;;;;;;;;;;;22.60;39.20;;;;;;6223226;28;20054;-43
2022/01/07 15:31:36;;;;;;;;;;;22.80;39.30;;;;;;6237526;28;19928;-45
2022/01/07 15:34:38;;;;;;;;;;;22.80;39.30;;;;;;6237316;28;21461;-43
2022/01/07 15:37:39;;;;;;;;;;;23.40;39.60;;;;;;6236930;28;19927;-46
2022/01/07 15:40:41;;;;;;;;;;;22.80;39.30;;;;;;6220623;28;20135;-42
2022/01/07 15:43:43;;;;;;;;;;;22.90;39.30;;;;;;6233555;28;19953;-43
2022/01/07 15:46:45;;;;;;;;;;;22.50;39.80;;;;;;6213228;28;19928;-42
2022/01/07 15:49:46;;;;;;;;;;;22.80;39.30;;;;;;6230124;28;19935;-46
2022/01/07 15:52:48;;;;;;;;;;;22.80;39.30;;;;;;6246920;28;20888;-42
2022/01/07 15:55:49;;;;;;;;;;;22.40;39.10;;;;;;6236302;28;19951;-43
2022/01/07 15:58:51;;;;;;;;;;;22.60;39.20;;;;;;6240921;28;19990;-42
2022/01/07 16:01:53;;;;;;;;;;;22.70;39.20;;;;;;6229162;28;19928;-45
2022/01/07 16:04:54;;;;;;;;;;;22.60;39.20;;;;;;6227920;28;21114;-42
2022/01/07 16:07:56;;;;;;;;;;;23.10;39.50;;;;;;6226973;28;19933;-44
2022/01/07 16:10:58;;;;;;;;;;;22.90;39.40;;;;;;6222916;28;19928;-42
2022/01/07 16:14:00;;;;;;;;;;;22.90;39.50;;;;;;6200142;28;19973;-42
2022/01/07 16:17:02;;;;;;;;;;;22.80;39.30;;;;;;6223113;28;19928;-45
2022/01/07 16:20:04;;;;;;;;;;;22.70;39.30;;;;;;6248721;28;20029;-42
2022/01/07 16:23:07;;;;;;;;;;;22.40;39.10;;;;;;6230485;27;19935;-46
2022/01/07 16:26:09;;;;;;;;;;;22.20;39.10;;;;;;6240585;28;21267;-42
2022/01/07 16:29:11;;;;;;;;;;;23.10;39.60;;;;;;6245085;28;20010;-42
2022/01/07 16:32:12;;;;;;;;;;;22.80;39.50;;;;;;6209481;28;20021;-45
2022/01/07 16:35:14;;;;;;;;;;;22.70;39.40;;;;;;6231501;28;19928;-41
2022/01/07 16:38:15;;;;;;;;;;;22.80;39.50;;;;;;6242830;28;20787;-41
2022/01/07 16:41:17;;;;;;;;;;;22.50;39.30;;;;;;6248604;28;19979;-42
2022/01/07 16:44:20;;;;;;;;;;;22.70;39.30;;;;;;6255647;28;19933;-42
2022/01/07 16:47:21;;;;;;;;;;;23.00;39.60;;;;;;6240180;28;20056;-45
2022/01/07 16:50:23;;;;;;;;;;;22.80;39.50;;;;;;6248451;28;19935;-42
2022/01/07 16:53:24;;;;;;;;;;;22.50;39.30;;;;;;6234636;28;20025;-42
2022/01/07 16:56:25;;;;;;;;;;;22.70;39.50;;;;;;6232211;28;19927;-42
2022/01/07 16:59:28;;;;;;;;;;;22.70;39.50;;;;;;6242947;28;20022;-41
2022/01/07 17:02:29;;;;;;;;;;;22.90;39.60;;;;;;6240886;28;20058;-43
2022/01/07 17:05:31;;;;;;;;;;;22.60;39.40;;;;;;6233849;28;19970;-42
2022/01/07 17:08:32;;;;;;;;;;;22.60;39.40;;;;;;6243674;28;20774;-42
2022/01/07 17:11:34;;;;;;;;;;;22.70;39.50;;;;;;6250061;28;19934;-42
2022/01/07 17:14:36;;;;;;;;;;;22.80;40.20;;;;;;6247493;28;19934;-40
2022/01/07 17:17:38;;;;;;;;;;;23.00;39.70;;;;;;6254047;28;19927;-41
2022/01/07 17:20:40;;;;;;;;;;;23.30;39.90;;;;;;6272018;28;20410;-41
2022/01/07 17:23:41;;;;;;;;;;;22.40;39.40;;;;;;6266006;28;20031;-42
2022/01/07 17:26:45;;;;;;;;;;;22.70;39.70;;;;;;6262154;28;19928;-45
2022/01/07 17:29:48;;;;;;;;;;;22.60;39.60;;;;;;6269766;28;19935;-41
2022/01/07 17:32:50;;;;;;;;;;;22.70;39.60;;;;;;6249472;28;20070;-42
2022/01/07 17:35:51;;;;;;;;;;;22.60;39.50;;;;;;6261097;28;20063;-42
2022/01/07 17:38:53;;;;;;;;;;;22.50;39.50;;;;;;6260079;27;20035;-41
2022/01/07 17:42:00;;;;;;;;;;;22.50;39.50;;;;;;6253774;28;19928;-42
2022/01/07 17:45:04;;;;;;;;;;;22.60;39.60;;;;;;6257763;28;20124;-41
2022/01/07 17:48:06;;;;;;;;;;;22.80;39.30;;;;;;6260991;28;20026;-41
2022/01/07 17:51:07;;;;;;;;;;;22.80;39.70;;;;;;6257899;28;20905;-42